sensor_id;sensor_type;location;lat;lon;timestamp;P1;durP1;ratioP1;P2;durP2;ratioP2
49578;SDS011;35483;50.828;3.228;2023-11-19T00:01:12;13.27;;;3.17;;
49578;SDS011;35483;50.828;3.228;2023-11-19T00:03:39;14.32;;;4.03;;
49578;SDS011;35483;50.828;3.228;2023-11-19T00:06:06;18.40;;;4.80;;
49578;SDS011;35483;50.828;3.228;2023-11-19T00:08:33;14.25;;;3.38;;
49578;SDS011;35483;50.828;3.228;2023-11-19T00:10:59;12.43;;;4.05;;
49578;SDS011;35483;50.828;3.228;2023-11-19T00:13:27;21.58;;;4.63;;
49578;SDS011;35483;50.828;3.228;2023-11-19T00:15:55;19.35;;;4.68;;
49578;SDS011;35483;50.828;3.228;2023-11-19T00:18:23;17.88;;;3.90;;
49578;SDS011;35483;50.828;3.228;2023-11-19T00:20:50;11.93;;;3.53;;
49578;SDS011;35483;50.828;3.228;2023-11-19T00:23:22;14.38;;;4.57;;
49578;SDS011;35483;50.828;3.228;2023-11-19T00:25:49;11.88;;;3.10;;
49578;SDS011;35483;50.828;3.228;2023-11-19T00:28:21;13.48;;;3.80;;
49578;SDS011;35483;50.828;3.228;2023-11-19T00:30:48;16.27;;;4.25;;
49578;SDS011;35483;50.828;3.228;2023-11-19T00:33:14;18.95;;;4.40;;
49578;SDS011;35483;50.828;3.228;2023-11-19T00:35:43;19.05;;;3.85;;
49578;SDS011;35483;50.828;3.228;2023-11-19T00:38:08;14.02;;;3.72;;
49578;SDS011;35483;50.828;3.228;2023-11-19T00:40:37;11.77;;;3.13;;
49578;SDS011;35483;50.828;3.228;2023-11-19T00:43:04;11.65;;;3.53;;
49578;SDS011;35483;50.828;3.228;2023-11-19T00:45:32;11.90;;;3.67;;
49578;SDS011;35483;50.828;3.228;2023-11-19T00:50:28;20.45;;;4.57;;
49578;SDS011;35483;50.828;3.228;2023-11-19T00:52:55;17.02;;;4.78;;
49578;SDS011;35483;50.828;3.228;2023-11-19T00:55:24;15.63;;;3.85;;
49578;SDS011;35483;50.828;3.228;2023-11-19T00:58:06;12.60;;;4.25;;
49578;SDS011;35483;50.828;3.228;2023-11-19T01:00:31;17.25;;;4.25;;
49578;SDS011;35483;50.828;3.228;2023-11-19T01:03:03;15.63;;;3.95;;
49578;SDS011;35483;50.828;3.228;2023-11-19T01:05:34;10.52;;;3.80;;
49578;SDS011;35483;50.828;3.228;2023-11-19T01:08:03;15.77;;;4.45;;
49578;SDS011;35483;50.828;3.228;2023-11-19T01:10:32;15.82;;;4.07;;
49578;SDS011;35483;50.828;3.228;2023-11-19T01:13:01;20.33;;;3.78;;
49578;SDS011;35483;50.828;3.228;2023-11-19T01:15:40;13.55;;;4.32;;
49578;SDS011;35483;50.828;3.228;2023-11-19T01:18:07;13.23;;;5.30;;
49578;SDS011;35483;50.828;3.228;2023-11-19T01:20:44;17.63;;;5.45;;
49578;SDS011;35483;50.828;3.228;2023-11-19T01:23:29;16.38;;;4.60;;
49578;SDS011;35483;50.828;3.228;2023-11-19T01:25:56;15.13;;;4.90;;
49578;SDS011;35483;50.828;3.228;2023-11-19T01:28:25;21.02;;;5.47;;
49578;SDS011;35483;50.828;3.228;2023-11-19T01:30:53;18.63;;;4.93;;
49578;SDS011;35483;50.828;3.228;2023-11-19T01:33:21;20.75;;;5.95;;
49578;SDS011;35483;50.828;3.228;2023-11-19T01:35:47;14.10;;;4.65;;
49578;SDS011;35483;50.828;3.228;2023-11-19T01:38:18;18.50;;;4.30;;
49578;SDS011;35483;50.828;3.228;2023-11-19T01:40:46;21.35;;;5.57;;
49578;SDS011;35483;50.828;3.228;2023-11-19T01:43:30;18.52;;;5.47;;
49578;SDS011;35483;50.828;3.228;2023-11-19T01:46:16;20.00;;;5.50;;
49578;SDS011;35483;50.828;3.228;2023-11-19T01:48:45;20.10;;;5.68;;
49578;SDS011;35483;50.828;3.228;2023-11-19T01:51:16;20.77;;;5.30;;
49578;SDS011;35483;50.828;3.228;2023-11-19T01:53:48;27.60;;;6.15;;
49578;SDS011;35483;50.828;3.228;2023-11-19T01:56:21;25.73;;;5.95;;
49578;SDS011;35483;50.828;3.228;2023-11-19T01:58:50;19.95;;;4.88;;
49578;SDS011;35483;50.828;3.228;2023-11-19T02:01:20;16.30;;;4.72;;
49578;SDS011;35483;50.828;3.228;2023-11-19T02:04:03;19.85;;;5.70;;
49578;SDS011;35483;50.828;3.228;2023-11-19T02:06:32;16.90;;;5.25;;
49578;SDS011;35483;50.828;3.228;2023-11-19T02:09:07;23.58;;;6.15;;
49578;SDS011;35483;50.828;3.228;2023-11-19T02:11:34;24.65;;;6.47;;
49578;SDS011;35483;50.828;3.228;2023-11-19T02:14:03;21.90;;;5.25;;
49578;SDS011;35483;50.828;3.228;2023-11-19T02:16:29;20.67;;;5.75;;
49578;SDS011;35483;50.828;3.228;2023-11-19T02:18:56;18.65;;;5.72;;
49578;SDS011;35483;50.828;3.228;2023-11-19T02:21:31;24.77;;;5.65;;
49578;SDS011;35483;50.828;3.228;2023-11-19T02:24:16;23.00;;;5.20;;
49578;SDS011;35483;50.828;3.228;2023-11-19T02:29:26;20.70;;;6.10;;
49578;SDS011;35483;50.828;3.228;2023-11-19T02:31:53;21.52;;;5.68;;
49578;SDS011;35483;50.828;3.228;2023-11-19T02:34:21;19.20;;;5.63;;
49578;SDS011;35483;50.828;3.228;2023-11-19T02:36:48;18.08;;;5.40;;
49578;SDS011;35483;50.828;3.228;2023-11-19T02:39:14;25.35;;;5.72;;
49578;SDS011;35483;50.828;3.228;2023-11-19T02:44:19;23.13;;;5.50;;
49578;SDS011;35483;50.828;3.228;2023-11-19T02:46:45;18.17;;;5.13;;
49578;SDS011;35483;50.828;3.228;2023-11-19T02:49:16;24.60;;;5.57;;
49578;SDS011;35483;50.828;3.228;2023-11-19T02:51:43;20.77;;;5.93;;
49578;SDS011;35483;50.828;3.228;2023-11-19T02:54:10;24.58;;;5.75;;
49578;SDS011;35483;50.828;3.228;2023-11-19T02:56:41;25.25;;;5.88;;
49578;SDS011;35483;50.828;3.228;2023-11-19T02:59:13;25.77;;;5.85;;
49578;SDS011;35483;50.828;3.228;2023-11-19T03:01:57;25.55;;;5.82;;
49578;SDS011;35483;50.828;3.228;2023-11-19T03:04:25;19.77;;;5.65;;
49578;SDS011;35483;50.828;3.228;2023-11-19T03:06:54;16.23;;;5.10;;
49578;SDS011;35483;50.828;3.228;2023-11-19T03:09:26;24.65;;;5.97;;
49578;SDS011;35483;50.828;3.228;2023-11-19T03:11:53;22.63;;;5.55;;
49578;SDS011;35483;50.828;3.228;2023-11-19T03:14:20;20.80;;;5.50;;
49578;SDS011;35483;50.828;3.228;2023-11-19T03:16:48;22.50;;;5.18;;
49578;SDS011;35483;50.828;3.228;2023-11-19T03:19:16;24.83;;;6.35;;
49578;SDS011;35483;50.828;3.228;2023-11-19T03:21:43;30.92;;;6.47;;
49578;SDS011;35483;50.828;3.228;2023-11-19T03:24:13;20.23;;;5.68;;
49578;SDS011;35483;50.828;3.228;2023-11-19T03:26:39;23.05;;;6.00;;
49578;SDS011;35483;50.828;3.228;2023-11-19T03:29:09;26.65;;;6.07;;
49578;SDS011;35483;50.828;3.228;2023-11-19T03:31:41;23.05;;;6.97;;
49578;SDS011;35483;50.828;3.228;2023-11-19T03:34:17;24.48;;;7.47;;
49578;SDS011;35483;50.828;3.228;2023-11-19T03:36:45;23.02;;;5.82;;
49578;SDS011;35483;50.828;3.228;2023-11-19T03:39:12;26.05;;;5.90;;
49578;SDS011;35483;50.828;3.228;2023-11-19T03:41:40;20.75;;;6.00;;
49578;SDS011;35483;50.828;3.228;2023-11-19T03:49:21;21.45;;;5.60;;
49578;SDS011;35483;50.828;3.228;2023-11-19T03:52:06;27.92;;;6.72;;
49578;SDS011;35483;50.828;3.228;2023-11-19T03:57:10;25.63;;;5.43;;
49578;SDS011;35483;50.828;3.228;2023-11-19T03:59:47;29.10;;;7.32;;
49578;SDS011;35483;50.828;3.228;2023-11-19T04:02:13;20.92;;;5.82;;
49578;SDS011;35483;50.828;3.228;2023-11-19T04:04:39;25.48;;;6.00;;
49578;SDS011;35483;50.828;3.228;2023-11-19T04:07:06;21.45;;;5.45;;
49578;SDS011;35483;50.828;3.228;2023-11-19T04:09:34;24.50;;;5.88;;
49578;SDS011;35483;50.828;3.228;2023-11-19T04:12:02;20.98;;;6.10;;
49578;SDS011;35483;50.828;3.228;2023-11-19T04:14:31;24.95;;;7.22;;
49578;SDS011;35483;50.828;3.228;2023-11-19T04:17:01;24.20;;;6.68;;
49578;SDS011;35483;50.828;3.228;2023-11-19T04:22:07;23.58;;;6.28;;
49578;SDS011;35483;50.828;3.228;2023-11-19T04:24:36;22.20;;;5.82;;
49578;SDS011;35483;50.828;3.228;2023-11-19T04:27:14;23.85;;;5.75;;
49578;SDS011;35483;50.828;3.228;2023-11-19T04:29:44;21.48;;;5.80;;
49578;SDS011;35483;50.828;3.228;2023-11-19T04:32:14;22.63;;;5.72;;
49578;SDS011;35483;50.828;3.228;2023-11-19T04:34:43;31.17;;;7.00;;
49578;SDS011;35483;50.828;3.228;2023-11-19T04:37:09;27.88;;;6.57;;
49578;SDS011;35483;50.828;3.228;2023-11-19T04:39:39;30.63;;;8.55;;
49578;SDS011;35483;50.828;3.228;2023-11-19T04:42:09;23.35;;;6.57;;
49578;SDS011;35483;50.828;3.228;2023-11-19T04:44:35;24.67;;;5.80;;
49578;SDS011;35483;50.828;3.228;2023-11-19T04:47:05;28.15;;;7.15;;
49578;SDS011;35483;50.828;3.228;2023-11-19T04:49:42;21.85;;;5.97;;
49578;SDS011;35483;50.828;3.228;2023-11-19T04:52:13;19.95;;;5.63;;
49578;SDS011;35483;50.828;3.228;2023-11-19T04:54:43;26.90;;;7.00;;
49578;SDS011;35483;50.828;3.228;2023-11-19T04:57:09;38.30;;;7.93;;
49578;SDS011;35483;50.828;3.228;2023-11-19T04:59:44;19.92;;;6.80;;
49578;SDS011;35483;50.828;3.228;2023-11-19T05:04:43;25.63;;;5.85;;
49578;SDS011;35483;50.828;3.228;2023-11-19T05:07:17;25.25;;;6.60;;
49578;SDS011;35483;50.828;3.228;2023-11-19T05:09:42;25.35;;;6.25;;
49578;SDS011;35483;50.828;3.228;2023-11-19T05:12:09;23.92;;;6.60;;
49578;SDS011;35483;50.828;3.228;2023-11-19T05:14:44;21.05;;;6.50;;
49578;SDS011;35483;50.828;3.228;2023-11-19T05:17:15;27.27;;;6.10;;
49578;SDS011;35483;50.828;3.228;2023-11-19T05:19:44;26.90;;;7.35;;
49578;SDS011;35483;50.828;3.228;2023-11-19T05:22:11;29.13;;;6.72;;
49578;SDS011;35483;50.828;3.228;2023-11-19T05:24:38;25.42;;;7.20;;
49578;SDS011;35483;50.828;3.228;2023-11-19T05:27:06;21.60;;;5.75;;
49578;SDS011;35483;50.828;3.228;2023-11-19T05:29:38;33.20;;;9.30;;
49578;SDS011;35483;50.828;3.228;2023-11-19T05:32:05;23.52;;;6.55;;
49578;SDS011;35483;50.828;3.228;2023-11-19T05:34:32;29.70;;;7.25;;
49578;SDS011;35483;50.828;3.228;2023-11-19T05:36:57;21.77;;;5.93;;
49578;SDS011;35483;50.828;3.228;2023-11-19T05:41:54;20.67;;;6.03;;
49578;SDS011;35483;50.828;3.228;2023-11-19T05:44:27;25.83;;;6.97;;
49578;SDS011;35483;50.828;3.228;2023-11-19T05:47:02;27.55;;;6.78;;
49578;SDS011;35483;50.828;3.228;2023-11-19T05:49:30;21.35;;;5.80;;
49578;SDS011;35483;50.828;3.228;2023-11-19T05:52:03;21.55;;;6.28;;
49578;SDS011;35483;50.828;3.228;2023-11-19T05:54:33;23.58;;;6.70;;
49578;SDS011;35483;50.828;3.228;2023-11-19T05:57:04;24.80;;;6.13;;
49578;SDS011;35483;50.828;3.228;2023-11-19T05:59:30;22.67;;;7.13;;
49578;SDS011;35483;50.828;3.228;2023-11-19T06:01:58;29.05;;;5.88;;
49578;SDS011;35483;50.828;3.228;2023-11-19T06:04:24;24.55;;;6.05;;
49578;SDS011;35483;50.828;3.228;2023-11-19T06:06:51;26.48;;;7.07;;
49578;SDS011;35483;50.828;3.228;2023-11-19T06:09:18;28.98;;;7.78;;
49578;SDS011;35483;50.828;3.228;2023-11-19T06:11:44;21.55;;;6.43;;
49578;SDS011;35483;50.828;3.228;2023-11-19T06:14:12;32.17;;;7.38;;
49578;SDS011;35483;50.828;3.228;2023-11-19T06:16:38;22.08;;;6.25;;
49578;SDS011;35483;50.828;3.228;2023-11-19T06:19:06;28.38;;;6.88;;
49578;SDS011;35483;50.828;3.228;2023-11-19T06:24:02;23.77;;;6.65;;
49578;SDS011;35483;50.828;3.228;2023-11-19T06:26:32;27.92;;;7.80;;
49578;SDS011;35483;50.828;3.228;2023-11-19T06:29:01;27.08;;;5.95;;
49578;SDS011;35483;50.828;3.228;2023-11-19T06:33:58;18.35;;;6.38;;
49578;SDS011;35483;50.828;3.228;2023-11-19T06:36:24;23.90;;;6.15;;
49578;SDS011;35483;50.828;3.228;2023-11-19T06:38:52;31.60;;;5.75;;
49578;SDS011;35483;50.828;3.228;2023-11-19T06:41:19;24.08;;;6.88;;
49578;SDS011;35483;50.828;3.228;2023-11-19T06:43:46;26.92;;;6.45;;
49578;SDS011;35483;50.828;3.228;2023-11-19T06:46:20;22.40;;;5.32;;
49578;SDS011;35483;50.828;3.228;2023-11-19T06:48:46;20.73;;;6.07;;
49578;SDS011;35483;50.828;3.228;2023-11-19T06:51:13;26.77;;;6.45;;
49578;SDS011;35483;50.828;3.228;2023-11-19T06:53:45;22.27;;;6.05;;
49578;SDS011;35483;50.828;3.228;2023-11-19T06:56:24;23.58;;;7.07;;
49578;SDS011;35483;50.828;3.228;2023-11-19T06:58:58;28.65;;;6.30;;
49578;SDS011;35483;50.828;3.228;2023-11-19T07:01:25;29.05;;;6.15;;
49578;SDS011;35483;50.828;3.228;2023-11-19T07:03:53;23.00;;;6.85;;
49578;SDS011;35483;50.828;3.228;2023-11-19T07:06:18;26.05;;;6.63;;
49578;SDS011;35483;50.828;3.228;2023-11-19T07:08:44;30.30;;;6.00;;
49578;SDS011;35483;50.828;3.228;2023-11-19T07:11:10;19.27;;;6.05;;
49578;SDS011;35483;50.828;3.228;2023-11-19T07:16:06;23.15;;;6.82;;
49578;SDS011;35483;50.828;3.228;2023-11-19T07:18:36;20.75;;;5.18;;
49578;SDS011;35483;50.828;3.228;2023-11-19T07:23:32;26.38;;;6.45;;
49578;SDS011;35483;50.828;3.228;2023-11-19T07:26:01;27.65;;;7.28;;
49578;SDS011;35483;50.828;3.228;2023-11-19T07:30:59;24.95;;;6.80;;
49578;SDS011;35483;50.828;3.228;2023-11-19T07:33:27;20.35;;;6.13;;
49578;SDS011;35483;50.828;3.228;2023-11-19T07:35:54;23.80;;;5.85;;
49578;SDS011;35483;50.828;3.228;2023-11-19T07:40:50;26.15;;;5.45;;
49578;SDS011;35483;50.828;3.228;2023-11-19T07:43:16;21.35;;;6.60;;
49578;SDS011;35483;50.828;3.228;2023-11-19T07:45:44;28.42;;;7.05;;
49578;SDS011;35483;50.828;3.228;2023-11-19T07:48:14;27.48;;;6.10;;
49578;SDS011;35483;50.828;3.228;2023-11-19T07:50:46;27.67;;;5.60;;
49578;SDS011;35483;50.828;3.228;2023-11-19T07:53:15;35.58;;;7.43;;
49578;SDS011;35483;50.828;3.228;2023-11-19T07:55:43;29.67;;;6.35;;
49578;SDS011;35483;50.828;3.228;2023-11-19T07:58:10;26.83;;;7.03;;
49578;SDS011;35483;50.828;3.228;2023-11-19T08:00:39;23.63;;;5.72;;
49578;SDS011;35483;50.828;3.228;2023-11-19T08:03:08;26.30;;;6.50;;
49578;SDS011;35483;50.828;3.228;2023-11-19T08:05:34;29.83;;;6.78;;
49578;SDS011;35483;50.828;3.228;2023-11-19T08:08:03;25.77;;;7.38;;
49578;SDS011;35483;50.828;3.228;2023-11-19T08:13:01;23.42;;;6.13;;
49578;SDS011;35483;50.828;3.228;2023-11-19T08:15:29;24.48;;;6.80;;
49578;SDS011;35483;50.828;3.228;2023-11-19T08:17:58;24.70;;;6.50;;
49578;SDS011;35483;50.828;3.228;2023-11-19T08:20:24;21.25;;;5.93;;
49578;SDS011;35483;50.828;3.228;2023-11-19T08:22:49;22.13;;;5.80;;
49578;SDS011;35483;50.828;3.228;2023-11-19T08:25:15;22.70;;;6.22;;
49578;SDS011;35483;50.828;3.228;2023-11-19T08:27:42;21.67;;;6.45;;
49578;SDS011;35483;50.828;3.228;2023-11-19T08:35:06;23.95;;;7.22;;
49578;SDS011;35483;50.828;3.228;2023-11-19T08:37:33;29.05;;;7.78;;
49578;SDS011;35483;50.828;3.228;2023-11-19T08:42:33;22.33;;;7.55;;
49578;SDS011;35483;50.828;3.228;2023-11-19T08:45:02;25.00;;;7.22;;
49578;SDS011;35483;50.828;3.228;2023-11-19T08:47:30;22.50;;;6.38;;
49578;SDS011;35483;50.828;3.228;2023-11-19T08:52:25;29.80;;;8.40;;
49578;SDS011;35483;50.828;3.228;2023-11-19T08:54:54;21.85;;;7.60;;
49578;SDS011;35483;50.828;3.228;2023-11-19T08:57:20;24.50;;;6.70;;
49578;SDS011;35483;50.828;3.228;2023-11-19T08:59:47;20.23;;;5.60;;
49578;SDS011;35483;50.828;3.228;2023-11-19T09:02:14;18.45;;;5.03;;
49578;SDS011;35483;50.828;3.228;2023-11-19T09:04:43;17.38;;;4.22;;
49578;SDS011;35483;50.828;3.228;2023-11-19T09:07:08;23.08;;;5.28;;
49578;SDS011;35483;50.828;3.228;2023-11-19T09:09:39;19.05;;;5.65;;
49578;SDS011;35483;50.828;3.228;2023-11-19T09:12:05;20.45;;;5.47;;
49578;SDS011;35483;50.828;3.228;2023-11-19T09:14:31;21.42;;;5.85;;
49578;SDS011;35483;50.828;3.228;2023-11-19T09:16:58;16.05;;;5.68;;
49578;SDS011;35483;50.828;3.228;2023-11-19T09:19:24;19.23;;;6.63;;
49578;SDS011;35483;50.828;3.228;2023-11-19T09:21:52;19.90;;;5.85;;
49578;SDS011;35483;50.828;3.228;2023-11-19T09:24:19;12.35;;;4.85;;
49578;SDS011;35483;50.828;3.228;2023-11-19T09:26:51;15.10;;;5.03;;
49578;SDS011;35483;50.828;3.228;2023-11-19T09:29:19;13.45;;;4.07;;
49578;SDS011;35483;50.828;3.228;2023-11-19T09:31:45;19.10;;;5.30;;
49578;SDS011;35483;50.828;3.228;2023-11-19T09:34:13;17.60;;;5.13;;
49578;SDS011;35483;50.828;3.228;2023-11-19T09:36:39;16.92;;;5.20;;
49578;SDS011;35483;50.828;3.228;2023-11-19T09:39:12;19.35;;;5.72;;
49578;SDS011;35483;50.828;3.228;2023-11-19T09:41:44;18.73;;;5.43;;
49578;SDS011;35483;50.828;3.228;2023-11-19T09:44:11;13.32;;;5.53;;
49578;SDS011;35483;50.828;3.228;2023-11-19T09:46:41;16.73;;;5.22;;
49578;SDS011;35483;50.828;3.228;2023-11-19T09:49:08;22.67;;;5.50;;
49578;SDS011;35483;50.828;3.228;2023-11-19T09:51:38;20.05;;;5.97;;
49578;SDS011;35483;50.828;3.228;2023-11-19T09:54:04;18.60;;;5.10;;
49578;SDS011;35483;50.828;3.228;2023-11-19T09:56:32;14.63;;;4.85;;
49578;SDS011;35483;50.828;3.228;2023-11-19T09:58:59;14.30;;;4.70;;
49578;SDS011;35483;50.828;3.228;2023-11-19T10:01:25;17.75;;;5.38;;
49578;SDS011;35483;50.828;3.228;2023-11-19T10:03:52;12.82;;;4.32;;
49578;SDS011;35483;50.828;3.228;2023-11-19T10:06:22;14.60;;;4.60;;
49578;SDS011;35483;50.828;3.228;2023-11-19T10:08:51;13.52;;;4.47;;
49578;SDS011;35483;50.828;3.228;2023-11-19T10:13:48;15.35;;;4.85;;
49578;SDS011;35483;50.828;3.228;2023-11-19T10:16:17;15.48;;;3.55;;
49578;SDS011;35483;50.828;3.228;2023-11-19T10:18:45;15.63;;;4.38;;
49578;SDS011;35483;50.828;3.228;2023-11-19T10:21:13;16.80;;;5.20;;
49578;SDS011;35483;50.828;3.228;2023-11-19T10:23:49;16.65;;;4.47;;
49578;SDS011;35483;50.828;3.228;2023-11-19T10:26:20;13.23;;;3.70;;
49578;SDS011;35483;50.828;3.228;2023-11-19T10:28:52;16.50;;;4.25;;
49578;SDS011;35483;50.828;3.228;2023-11-19T10:31:19;18.25;;;4.82;;
49578;SDS011;35483;50.828;3.228;2023-11-19T10:33:53;13.45;;;3.75;;
49578;SDS011;35483;50.828;3.228;2023-11-19T10:36:18;17.67;;;4.85;;
49578;SDS011;35483;50.828;3.228;2023-11-19T10:38:54;16.98;;;4.63;;
49578;SDS011;35483;50.828;3.228;2023-11-19T10:41:31;18.80;;;4.50;;
49578;SDS011;35483;50.828;3.228;2023-11-19T10:44:00;20.67;;;5.05;;
49578;SDS011;35483;50.828;3.228;2023-11-19T10:46:39;20.63;;;4.63;;
49578;SDS011;35483;50.828;3.228;2023-11-19T10:49:09;16.98;;;5.35;;
49578;SDS011;35483;50.828;3.228;2023-11-19T10:54:09;18.52;;;4.70;;
49578;SDS011;35483;50.828;3.228;2023-11-19T10:56:38;18.55;;;4.78;;
49578;SDS011;35483;50.828;3.228;2023-11-19T10:59:08;17.05;;;4.68;;
49578;SDS011;35483;50.828;3.228;2023-11-19T11:01:39;18.05;;;5.47;;
49578;SDS011;35483;50.828;3.228;2023-11-19T11:04:14;18.15;;;5.25;;
49578;SDS011;35483;50.828;3.228;2023-11-19T11:06:45;16.05;;;5.78;;
49578;SDS011;35483;50.828;3.228;2023-11-19T11:09:15;14.98;;;4.35;;
49578;SDS011;35483;50.828;3.228;2023-11-19T11:11:47;12.07;;;4.47;;
49578;SDS011;35483;50.828;3.228;2023-11-19T11:14:14;17.02;;;4.38;;
49578;SDS011;35483;50.828;3.228;2023-11-19T11:16:44;17.67;;;4.28;;
49578;SDS011;35483;50.828;3.228;2023-11-19T11:19:15;17.25;;;5.00;;
49578;SDS011;35483;50.828;3.228;2023-11-19T11:21:49;22.23;;;4.28;;
49578;SDS011;35483;50.828;3.228;2023-11-19T11:30:31;10.27;;;3.38;;
49578;SDS011;35483;50.828;3.228;2023-11-19T11:38:42;18.08;;;4.80;;
49578;SDS011;35483;50.828;3.228;2023-11-19T11:41:18;13.93;;;4.07;;
49578;SDS011;35483;50.828;3.228;2023-11-19T11:49:04;11.07;;;3.60;;
49578;SDS011;35483;50.828;3.228;2023-11-19T12:02:19;12.25;;;4.22;;
49578;SDS011;35483;50.828;3.228;2023-11-19T12:04:49;15.23;;;4.60;;
49578;SDS011;35483;50.828;3.228;2023-11-19T12:07:19;14.70;;;4.18;;
49578;SDS011;35483;50.828;3.228;2023-11-19T12:09:49;14.43;;;3.75;;
49578;SDS011;35483;50.828;3.228;2023-11-19T12:12:33;22.10;;;4.32;;
49578;SDS011;35483;50.828;3.228;2023-11-19T12:17:40;20.65;;;4.13;;
49578;SDS011;35483;50.828;3.228;2023-11-19T12:20:16;15.40;;;4.43;;
49578;SDS011;35483;50.828;3.228;2023-11-19T12:22:44;16.35;;;4.03;;
49578;SDS011;35483;50.828;3.228;2023-11-19T12:25:15;19.80;;;4.82;;
49578;SDS011;35483;50.828;3.228;2023-11-19T12:27:43;16.70;;;3.60;;
49578;SDS011;35483;50.828;3.228;2023-11-19T12:30:09;17.60;;;4.43;;
49578;SDS011;35483;50.828;3.228;2023-11-19T12:32:47;15.18;;;3.88;;
49578;SDS011;35483;50.828;3.228;2023-11-19T12:37:43;15.40;;;4.68;;
49578;SDS011;35483;50.828;3.228;2023-11-19T12:40:17;15.23;;;4.63;;
49578;SDS011;35483;50.828;3.228;2023-11-19T12:42:48;14.93;;;4.60;;
49578;SDS011;35483;50.828;3.228;2023-11-19T12:45:17;18.05;;;4.22;;
49578;SDS011;35483;50.828;3.228;2023-11-19T12:47:46;21.33;;;3.92;;
49578;SDS011;35483;50.828;3.228;2023-11-19T12:50:13;16.42;;;5.43;;
49578;SDS011;35483;50.828;3.228;2023-11-19T12:52:43;15.30;;;4.30;;
49578;SDS011;35483;50.828;3.228;2023-11-19T12:55:29;22.85;;;4.90;;
49578;SDS011;35483;50.828;3.228;2023-11-19T12:57:57;14.90;;;3.58;;
49578;SDS011;35483;50.828;3.228;2023-11-19T13:00:25;16.40;;;4.35;;
49578;SDS011;35483;50.828;3.228;2023-11-19T13:02:53;15.80;;;3.80;;
49578;SDS011;35483;50.828;3.228;2023-11-19T13:05:30;15.13;;;4.63;;
49578;SDS011;35483;50.828;3.228;2023-11-19T13:08:01;18.48;;;4.78;;
49578;SDS011;35483;50.828;3.228;2023-11-19T13:10:50;18.95;;;4.45;;
49578;SDS011;35483;50.828;3.228;2023-11-19T13:13:19;15.88;;;4.82;;
49578;SDS011;35483;50.828;3.228;2023-11-19T13:15:46;16.63;;;5.18;;
49578;SDS011;35483;50.828;3.228;2023-11-19T13:18:15;19.48;;;4.43;;
49578;SDS011;35483;50.828;3.228;2023-11-19T13:20:43;23.60;;;5.13;;
49578;SDS011;35483;50.828;3.228;2023-11-19T13:23:10;23.52;;;4.72;;
49578;SDS011;35483;50.828;3.228;2023-11-19T13:25:38;15.70;;;3.88;;
49578;SDS011;35483;50.828;3.228;2023-11-19T13:28:05;20.77;;;4.97;;
49578;SDS011;35483;50.828;3.228;2023-11-19T13:30:33;12.20;;;4.68;;
49578;SDS011;35483;50.828;3.228;2023-11-19T13:35:33;18.77;;;4.75;;
49578;SDS011;35483;50.828;3.228;2023-11-19T13:38:00;13.40;;;3.83;;
49578;SDS011;35483;50.828;3.228;2023-11-19T13:40:26;10.70;;;4.90;;
49578;SDS011;35483;50.828;3.228;2023-11-19T13:42:54;11.98;;;3.90;;
49578;SDS011;35483;50.828;3.228;2023-11-19T13:47:48;10.40;;;3.75;;
49578;SDS011;35483;50.828;3.228;2023-11-19T13:52:44;14.63;;;4.47;;
49578;SDS011;35483;50.828;3.228;2023-11-19T13:55:13;19.35;;;5.55;;
49578;SDS011;35483;50.828;3.228;2023-11-19T13:57:42;21.00;;;5.53;;
49578;SDS011;35483;50.828;3.228;2023-11-19T14:00:09;19.98;;;4.55;;
49578;SDS011;35483;50.828;3.228;2023-11-19T14:02:43;14.18;;;4.13;;
49578;SDS011;35483;50.828;3.228;2023-11-19T14:07:44;13.82;;;3.83;;
49578;SDS011;35483;50.828;3.228;2023-11-19T14:10:16;15.68;;;4.25;;
49578;SDS011;35483;50.828;3.228;2023-11-19T14:12:44;15.50;;;3.70;;
49578;SDS011;35483;50.828;3.228;2023-11-19T14:15:13;18.33;;;4.70;;
49578;SDS011;35483;50.828;3.228;2023-11-19T14:20:11;12.35;;;3.92;;
49578;SDS011;35483;50.828;3.228;2023-11-19T14:22:41;13.82;;;3.40;;
49578;SDS011;35483;50.828;3.228;2023-11-19T14:25:10;11.50;;;3.72;;
49578;SDS011;35483;50.828;3.228;2023-11-19T14:27:40;15.95;;;4.82;;
49578;SDS011;35483;50.828;3.228;2023-11-19T14:30:10;14.20;;;3.55;;
49578;SDS011;35483;50.828;3.228;2023-11-19T14:32:42;15.80;;;4.03;;
49578;SDS011;35483;50.828;3.228;2023-11-19T14:35:10;16.67;;;4.45;;
49578;SDS011;35483;50.828;3.228;2023-11-19T14:37:36;16.00;;;4.53;;
49578;SDS011;35483;50.828;3.228;2023-11-19T14:45:04;15.40;;;4.57;;
49578;SDS011;35483;50.828;3.228;2023-11-19T14:47:33;16.65;;;5.50;;
49578;SDS011;35483;50.828;3.228;2023-11-19T14:50:00;12.45;;;4.07;;
49578;SDS011;35483;50.828;3.228;2023-11-19T14:52:29;10.73;;;3.38;;
49578;SDS011;35483;50.828;3.228;2023-11-19T14:54:57;15.68;;;3.55;;
49578;SDS011;35483;50.828;3.228;2023-11-19T14:57:22;10.30;;;3.30;;
49578;SDS011;35483;50.828;3.228;2023-11-19T15:02:18;11.75;;;3.83;;
49578;SDS011;35483;50.828;3.228;2023-11-19T15:04:44;17.52;;;3.80;;
49578;SDS011;35483;50.828;3.228;2023-11-19T15:07:10;11.73;;;3.15;;
49578;SDS011;35483;50.828;3.228;2023-11-19T15:09:39;9.80;;;3.42;;
49578;SDS011;35483;50.828;3.228;2023-11-19T15:12:09;11.38;;;3.40;;
49578;SDS011;35483;50.828;3.228;2023-11-19T15:14:36;12.18;;;3.35;;
49578;SDS011;35483;50.828;3.228;2023-11-19T15:17:07;11.35;;;3.47;;
49578;SDS011;35483;50.828;3.228;2023-11-19T15:19:33;12.82;;;3.53;;
49578;SDS011;35483;50.828;3.228;2023-11-19T15:22:02;15.50;;;4.22;;
49578;SDS011;35483;50.828;3.228;2023-11-19T15:24:30;9.82;;;3.20;;
49578;SDS011;35483;50.828;3.228;2023-11-19T15:26:59;8.30;;;2.67;;
49578;SDS011;35483;50.828;3.228;2023-11-19T15:29:25;7.13;;;2.83;;
49578;SDS011;35483;50.828;3.228;2023-11-19T15:31:56;11.15;;;2.90;;
49578;SDS011;35483;50.828;3.228;2023-11-19T15:34:23;10.88;;;2.50;;
49578;SDS011;35483;50.828;3.228;2023-11-19T15:36:52;10.07;;;2.92;;
49578;SDS011;35483;50.828;3.228;2023-11-19T15:39:17;13.68;;;4.38;;
49578;SDS011;35483;50.828;3.228;2023-11-19T15:41:43;8.77;;;3.65;;
49578;SDS011;35483;50.828;3.228;2023-11-19T15:44:10;10.23;;;2.80;;
49578;SDS011;35483;50.828;3.228;2023-11-19T15:49:07;11.25;;;3.47;;
49578;SDS011;35483;50.828;3.228;2023-11-19T15:54:03;9.63;;;3.95;;
49578;SDS011;35483;50.828;3.228;2023-11-19T15:56:36;14.55;;;3.97;;
49578;SDS011;35483;50.828;3.228;2023-11-19T15:59:02;16.67;;;4.43;;
49578;SDS011;35483;50.828;3.228;2023-11-19T16:01:29;11.35;;;3.70;;
49578;SDS011;35483;50.828;3.228;2023-11-19T16:03:56;11.65;;;3.53;;
49578;SDS011;35483;50.828;3.228;2023-11-19T16:06:23;11.52;;;3.95;;
49578;SDS011;35483;50.828;3.228;2023-11-19T16:08:49;13.90;;;3.83;;
49578;SDS011;35483;50.828;3.228;2023-11-19T16:11:16;12.52;;;4.13;;
49578;SDS011;35483;50.828;3.228;2023-11-19T16:13:44;15.27;;;4.38;;
49578;SDS011;35483;50.828;3.228;2023-11-19T16:16:13;13.77;;;3.78;;
49578;SDS011;35483;50.828;3.228;2023-11-19T16:18:40;15.38;;;4.38;;
49578;SDS011;35483;50.828;3.228;2023-11-19T16:21:08;19.77;;;4.25;;
49578;SDS011;35483;50.828;3.228;2023-11-19T16:23:34;10.18;;;3.20;;
49578;SDS011;35483;50.828;3.228;2023-11-19T16:26:03;11.60;;;3.05;;
49578;SDS011;35483;50.828;3.228;2023-11-19T16:28:31;11.02;;;3.58;;
49578;SDS011;35483;50.828;3.228;2023-11-19T16:30:57;12.27;;;3.45;;
49578;SDS011;35483;50.828;3.228;2023-11-19T16:33:25;11.85;;;3.85;;
49578;SDS011;35483;50.828;3.228;2023-11-19T16:35:51;9.35;;;3.33;;
49578;SDS011;35483;50.828;3.228;2023-11-19T16:38:17;13.05;;;3.72;;
49578;SDS011;35483;50.828;3.228;2023-11-19T16:40:43;10.77;;;3.78;;